Airfield :
LOGIN :

Register | Disclaimer

   EN    FR    IT 

 










Legend :    VFR   Marginal VFR   IFR   Intensive IFR   Very Intensive IFR
Visi :
Ceiling :
>= 8 km
>= 3000ft
5 to 8 km
1000 to 3000 ft
1500m to 5 km
500 to 1000 ft
800 to 1500m
200 to 500 ft
< 800m
< 200 ft
Symbols :   Thunderstorms  Fog  Heavy snow  Heavy precipitations  Wind > 20 kt
SIGMETs :     Misc.  Thunderstorms  Icing  Turbulence  Mountain Waves  Volcanic Ashes







- Airport Elevation : 505 ft
- IATA code : SXB
- Download approach charts


LFST - Strasbourg

CURRENT METAR :
  • 141830Z AUTO 19012KT 9999 FEW032 SCT068 BKN110 05/03 Q0996 TEMPO 3000 SHRA SCT040CB

EXPIRED METARs :
  • 141800Z AUTO 19012KT 9999 -RA SCT032 BKN038 BKN046 05/03 Q0997 TEMPO 3000 SHRA SCT040CB
  • 141730Z AUTO 19012KT 9999 -RA BKN033/// BKN043/// BKN058/// ///TCU 05/03 Q0997 TEMPO 3000 SHRA SCT040CB
  • 141700Z AUTO 21010KT 9999 FEW040 BKN100 OVC120 06/03 Q0997 TEMPO 3000 SHRA SCT030CB BECMG 22015G25KT
  • 141630Z AUTO 19012KT 9999 FEW039 SCT100 BKN120 07/02 Q0997 TEMPO 3000 SHRA SCT030CB BECMG 22015G25KT
  • 141600Z AUTO 21013KT 9999 FEW052 BKN100 BKN120 07/02 Q0998 TEMPO 25020G35KT 3000 SHRA SCT030CB

TAF TAF LFST
Valid from the 14 at 18:00 until the 15 at 18:00 UTC


141700Z 1418/1518 18012KT 9999 SCT040 BKN100
TEMPO 1418/1504 3000 SHRA SCT040CB
PROB40
TEMPO 1506/1509 -SHRA SCT030TCU
TEMPO 1509/1514 3000 SHRA SCT025CB
No reported NOTAMs for that airfield.
2 SIGMETs reported for the Reims FIR (LFEE) :
 
Severe turbulence
LFEE SIGMET 6 VALID 141700/142000 LFPW
LFEE REIMS FIR/UIR SEV TURB OBS AT 1700Z S OF N4800 FL160/300 STNR NC=
Severe turbulence
LFEE SIGMET 5 VALID 141800/142100 LFPW
LFEE REIMS FIR/UIR SEV TURB FCST WI N4815 E00800 - N4730 E00730 - N4630 E00615 - N4630 E00545 - N4715 E00530 - N4815 E00800 SFC/FL070 STNR INTSF=



MET'MAP, your aeronautical weather chart ! - Copyright ORBIFLY December 2007 - Disclaimer

ORBIFLY MET'MAP TEAM :

Programming & Development : Alexandra Zaïnal
Concept & Development : Baudouin d'Aumeries
Co-Development & Prog : Marc-Olivier Méhu
Technical & hardware support : Manuel Goepfert

Contact : metmap@orbifly.com




SOURCES & CREDITS :

   NOAA